WetterOnline ( https://www.wetteronline.de )

Wetter aktuell Denkendorf

Aktuelles Wetter: Gelbelsee (539m)

6-stündlich | Neueste Meldungen
Ortszeit Temperatur Wetter
Sa, 01.10. 20:00 10.3° C bewölkt
Sa, 01.10. 14:00 8.4° C leichter Regen
Sa, 01.10. 8:00 6.3° C Nebel
Sa, 01.10. 2:00 7.4° C wolkig
Fr, 30.09. 20:00 9.2° C wolkenlos
Fr, 30.09. 14:00 12.2° C bedeckt
Fr, 30.09. 8:00 4.6° C leicht bewölkt
Fr, 30.09. 2:00 5.9° C bedeckt
Ortszeit Temperatur Wetter
So, 02.10. 1:30 10.8° C bewölkt
So, 02.10. 1:20 10.8° C bewölkt
So, 02.10. 1:10 10.7° C bedeckt
So, 02.10. 1:00 10.6° C wolkig
So, 02.10. 0:50 10.6° C wolkig
So, 02.10. 0:40 10.7° C bedeckt
So, 02.10. 0:30 10.8° C bewölkt
So, 02.10. 0:00 10.8° C bedeckt
Sa, 01.10. 23:30 10.6° C bewölkt
Sa, 01.10. 23:00 10.5° C bewölkt
Sa, 01.10. 22:30 10.4° C bedeckt
Ortszeit Relative Feuchte Sichtweite
Sa, 01.10. 20:00 91% 60 km
Sa, 01.10. 14:00 93% 19 km
Sa, 01.10. 8:00 98% 0.6 km
Sa, 01.10. 2:00 92% 10 km
Fr, 30.09. 20:00 86% 35 km
Fr, 30.09. 14:00 70% 35 km
Fr, 30.09. 8:00 97% 6 km
Fr, 30.09. 2:00 97% 22 km
Ortszeit Relative Feuchte Sichtweite
So, 02.10. 1:30 90% 50 km
So, 02.10. 1:20 90% -
So, 02.10. 1:10 91% -
So, 02.10. 1:00 91% 50 km
So, 02.10. 0:50 91% -
So, 02.10. 0:40 91% -
So, 02.10. 0:30 91% 55 km
So, 02.10. 0:00 92% 55 km
Sa, 01.10. 23:30 92% 65 km
Sa, 01.10. 23:00 94% 60 km
Sa, 01.10. 22:30 94% 65 km
Ortszeit Niederschlagsmenge Niederschlagsart
Sa, 01.10. 20:00 4 l/m2 in 12 Std. Regen
Sa, 01.10. 14:00 4 l/m2 in 6 Std. Regen
Sa, 01.10. 8:00 0.0 l/m2 in 12 Std. -
Sa, 01.10. 2:00 0.0 l/m2 in 6 Std. -
Fr, 30.09. 20:00 0.0 l/m2 in 12 Std. -
Fr, 30.09. 14:00 0.0 l/m2 in 6 Std. -
Fr, 30.09. 8:00 0.0 l/m2 in 12 Std. -
Fr, 30.09. 2:00 0.0 l/m2 in 6 Std. -
Ortszeit Niederschlagsmenge Niederschlagsart
So, 02.10. 1:30 0.0 l/m2 in 1 Std. -
So, 02.10. 1:20 keine Meldung -
So, 02.10. 1:10 keine Meldung -
So, 02.10. 1:00 0.0 l/m2 in 1 Std. -
So, 02.10. 0:50 keine Meldung -
So, 02.10. 0:40 keine Meldung -
So, 02.10. 0:30 0.0 l/m2 in 1 Std. -
So, 02.10. 0:00 0.0 l/m2 in 1 Std. -
Sa, 01.10. 23:30 0.0 l/m2 in 1 Std. -
Sa, 01.10. 23:00 <0.05 l/m2 in 1 Std. Regen
Sa, 01.10. 22:30 <0.05 l/m2 in 1 Std. Schneeregen
Ortszeit Stärke Spitze Richtung
km/h Bft. km/h Grad Sektor
Sa, 01.10. 20:00 15 3 39 230° SW
Sa, 01.10. 14:00 22 4 43 220° SW
Sa, 01.10. 8:00 9 2 19 210° SW
Sa, 01.10. 2:00 9 2 19 220° SW
Fr, 30.09. 20:00 4 1 18 190° S
Fr, 30.09. 14:00 9 2 17 200° S
Fr, 30.09. 8:00 4 1 7 20° N
Fr, 30.09. 2:00 4 1 4 360° N
Ortszeit Stärke Spitze Richtung
km/h Bft. km/h Grad Sektor
So, 02.10. 1:30 14 3 25 260° W
So, 02.10. 1:20 14 3 - 260° W
So, 02.10. 1:10 14 3 - 260° W
So, 02.10. 1:00 13 3 28 260° W
So, 02.10. 0:50 13 3 - 260° W
So, 02.10. 0:40 14 3 - 250° W
So, 02.10. 0:30 14 3 29 250° W
So, 02.10. 0:00 17 3 28 250° W
Sa, 01.10. 23:30 13 3 28 250° W
Sa, 01.10. 23:00 14 3 29 240° SW
Sa, 01.10. 22:30 15 3 26 240° SW
Ortszeit Untergrenze Bedeckung Gattung
total tief tief mittel hoch
Sa, 01.10. 20:00 930 m 8/8 5/8 - - -
Sa, 01.10. 14:00 300 m 8/8 8/8 - - -
Sa, 01.10. 8:00 30 m 8/8 8/8 - - -
Sa, 01.10. 2:00 570 m 6/8 6/8 - - -
Fr, 30.09. 20:00 - 0/8 0/8 - - -
Fr, 30.09. 14:00 690 m 8/8 8/8 - - -
Fr, 30.09. 8:00 3600 m 2/8 2/8 - - -
Fr, 30.09. 2:00 3000 m 8/8 8/8 - - -
Ortszeit Bedeckungsgrad in Achtel und Wolkenuntergrenze
So, 02.10. 1:30 6(510m) 7(1350m) 8(4200m)
So, 02.10. 1:20 6(510m) 7(1350m) 8(4200m)
So, 02.10. 1:10 8
So, 02.10. 1:00 1(480m) 7(3900m) 8(4200m)
So, 02.10. 0:50 1(480m) 7(3900m) 8(4200m)
So, 02.10. 0:40 8
So, 02.10. 0:30 4(420m) 8(3600m) 8(4500m)
So, 02.10. 0:00 3(420m) 8(2100m) 8(4800m)
Sa, 01.10. 23:30 7(600m) 7(2100m) 8(4800m)
Sa, 01.10. 23:00 5(330m) 7(570m) 7(720m)
Sa, 01.10. 22:30 1(360m) 8(720m) 8(2100m)
Ortszeit Luftdruck NN (hPa) Tendenz (hPa in 3 Std.)
Sa, 01.10. 20:00 1014 + 1,4
Sa, 01.10. 14:00 1013 - 1,2
Sa, 01.10. 8:00 1015 - 0,4
Sa, 01.10. 2:00 1015 + 0,6
Fr, 30.09. 20:00 1014 + 0,9
Fr, 30.09. 14:00 1012 + 0,7
Fr, 30.09. 8:00 1011 + 1,3
Fr, 30.09. 2:00 1009 + 0,7
Ortszeit Luftdruck NN (hPa) Tendenz (hPa in 3 Std.)
So, 02.10. 1:30 1019 + 2,3
So, 02.10. 1:20 1019 keine Meldung
So, 02.10. 1:10 1019 keine Meldung
So, 02.10. 1:00 1019 + 2,8
So, 02.10. 0:50 1019 keine Meldung
So, 02.10. 0:40 1018 keine Meldung
So, 02.10. 0:30 1018 + 2,4
So, 02.10. 0:00 1017 + 2,3
Sa, 01.10. 23:30 1017 + 2,4
Sa, 01.10. 23:00 1017 + 2,4
Sa, 01.10. 22:30 1016 + 2,5
Ortszeit Schneehöhe (cm)
Sa, 01.10. 20:00 0
Sa, 01.10. 14:00 0
Sa, 01.10. 8:00 0
Sa, 01.10. 2:00 0
Fr, 30.09. 20:00 0
Fr, 30.09. 14:00 0
Fr, 30.09. 8:00 0
Fr, 30.09. 2:00 0
Ortszeit Schneehöhe (cm)
So, 02.10. 1:30 0
So, 02.10. 1:20 0
So, 02.10. 1:10 0
So, 02.10. 1:00 0
So, 02.10. 0:50 0
So, 02.10. 0:40 0
So, 02.10. 0:30 0
So, 02.10. 0:00 0
Sa, 01.10. 23:30 0
Sa, 01.10. 23:00 0
Sa, 01.10. 22:30 0
Link zu dieser Seite / Seite empfehlen

Das Wetter in ...